Rouyn Noranda Airport
CYUY : rendu visible

Aérodrome :











RETROUVEZ-NOUS SUR...

 
LOGIN :

S'inscrire | Disclaimer

   EN    FR    IT 

 









Légende :    VFR   VFR Marginal   IFR   IFR Intensif   IFR Très Intensif
Visi : 
Plafond : 
>= 8 km
>= 3000ft
5 à 8 km
1000 à 3000 ft
1500m à 5 km
500 à 1000 ft
800 à 1500m
200 à 500 ft
< 800m
< 200 ft
Symboles :   Orages  Brouillard  Fortes neiges  Fortes précipitations  Vent > 20 kt






- Altitude de l'aérodrome : 988 ft
- Code IATA : YUY


CYUY - Rouyn Noranda

DERNIER METAR :
  • 231700Z 20010KT 160V230 15SM FEW025 FEW210 02/M04 A2981 RMK CF1CI2 CF TR SLP113

METARs EXPIRÉS :
  • 231600Z 20003KT 150V260 15SM FEW025 FEW210 00/M04 A2983 RMK CF1CI2 CF TR SLP119
  • 231500Z 25006KT 15SM FEW210 M02/M05 A2984 RMK CI1 SLP124

TAF TAF CYUY
Valide du 23 à 18h jusqu'au 24 à 06h UTC


231742Z 2318/2406 20010KT P6SM FEW020
FM232300 20010KT P6SM SCT020
TEMPO 2323/2402 BKN020
FM240200 20012KT P6SM BKN025
TEMPO 2402/2406 4SM -RASN BR OVC015 RMK NXT FCST BY 240000Z



MET'MAP, la Météo Aéronautique d'un coup d'oeil ! - Copyright ORBIFLY Décembre 2007 - Disclaimer

ORBIFLY MET'MAP TEAM :

Programmation & Développement : Alexandra Zaïnal
Sur une idée originale de : Baudouin d'Aumeries
Assistance à la programmation : Marc-Olivier Méhu
Soutien technique & logistique : Manuel Goepfert

Contact : metmap@orbifly.com




SOURCES & CREDITS :

   NOAA       Earth
Advisory